Time;durP1;ratioP1;P1;durP2;ratioP2;P2;SDS_P1;SDS_P2;PMS_P1;PMS_P2;Temp;Humidity;BMP_temperature;BMP_pressure;BME280_temperature;BME280_humidity;BME280_pressure;Samples;Min_cycle;Max_cycle;Signal;HPM_P1;HPM_P2
2022/04/08 04:25:30;;;;;;;1.20;1.10;;;;;;;11.29;79.54;98809.28;6561902;27;153748;-89
2022/04/08 04:28:33;;;;;;;3.42;1.12;;;;;;;11.29;79.54;98809.28;6588510;27;32985;-89
2022/04/08 04:39:14;;;;;;;1.10;0.70;;;;;;;10.52;77.60;98824.78;6615291;27;20056;-89
2022/04/08 04:42:17;;;;;;;;;;;;;;;10.74;72.97;98816.06;6607490;26;33634;-89
2022/04/08 04:49:05;;;;;;;2.20;0.98;;;;;;;10.64;71.91;98810.59;6620847;27;20067;-89
2022/04/08 04:52:08;;;;;;;1.80;1.00;;;;;;;10.38;72.50;98794.78;6613766;26;33509;-89
2022/04/08 04:58:49;;;;;;;4.62;1.33;;;;;;;10.28;70.81;98806.19;6616687;26;20547;-89
2022/04/08 05:01:53;;;;;;;1.65;0.80;;;;;;;10.36;67.34;98833.00;6614974;27;33866;-90
2022/04/08 05:04:57;;;;;;;3.25;1.60;;;;;;;10.29;69.69;98835.25;6615232;27;33949;-89
2022/04/08 05:34:52;;;;;;;3.03;1.08;;;;;;;11.02;52.62;98858.22;6607769;26;20048;-89
2022/04/08 05:41:39;;;;;;;3.20;1.17;;;;;;;11.03;54.26;98859.91;6611240;27;20039;-88
2022/04/08 05:44:42;;;;;;;5.53;0.90;;;;;;;10.88;53.38;98899.91;6616284;26;33849;-88
2022/04/08 05:47:50;;;;;;;3.37;1.20;;;;;;;10.89;53.79;98912.22;6591316;27;32641;-88
2022/04/08 05:54:31;;;;;;;4.07;1.05;;;;;;;10.93;52.30;98928.75;6603854;26;20053;-89
2022/04/08 05:57:41;;;;;;;2.45;1.10;;;;;;;11.03;52.60;98927.06;6608715;27;33667;-89
2022/04/08 06:00:46;;;;;;;2.53;1.15;;;;;;;11.04;50.93;98931.44;6583755;27;32932;-89
2022/04/08 06:03:49;;;;;;;12.85;1.23;;;;;;;11.11;51.65;98929.16;6608475;27;33584;-88
2022/04/08 06:06:51;;;;;;;2.30;1.02;;;;;;;11.15;50.86;98940.38;6589433;27;33070;-87
2022/04/08 06:09:56;;;;;;;5.78;1.25;;;;;;;11.16;51.42;98964.16;6611440;27;33915;-89
2022/04/08 06:12:58;;;;;;;6.85;1.20;;;;;;;11.32;51.88;98978.94;6599291;27;33086;-89
2022/04/08 06:16:02;;;;;;;3.97;1.15;;;;;;;11.35;49.63;98983.19;6591245;27;33400;-87
2022/04/08 06:19:04;;;;;;;2.37;1.27;;;;;;;11.26;49.29;98982.91;6610382;27;33563;-87
2022/04/08 06:22:08;;;;;;;5.40;1.52;;;;;;;11.40;49.35;98987.19;6606199;27;34272;-88
2022/04/08 06:25:13;;;;;;;6.00;1.50;;;;;;;11.64;47.37;98994.25;6601681;27;33779;-88
2022/04/08 06:28:16;;;;;;;1.77;1.02;;;;;;;11.89;46.71;98983.53;6587668;27;33314;-88
2022/04/08 06:42:27;;;;;;;3.62;1.42;;;;;;;12.18;45.01;98994.59;6606786;27;20048;-88
2022/04/08 06:52:59;;;;;;;13.05;2.35;;;;;;;11.96;45.04;99006.84;6611092;27;20052;-90
2022/04/08 07:03:30;;;;;;;1.92;1.30;;;;;;;11.93;46.11;99020.34;6610852;26;20056;-89
2022/04/08 07:06:33;;;;;;;4.75;1.58;;;;;;;11.94;44.20;99016.75;6586911;27;32684;-89
2022/04/08 07:09:35;;;;;;;3.37;1.10;;;;;;;11.95;44.44;99014.94;6587323;27;32864;-88
2022/04/08 07:12:38;;;;;;;4.62;1.23;;;;;;;12.00;44.08;99040.22;6587165;27;32862;-89
2022/04/08 07:15:41;;;;;;;2.50;1.10;;;;;;;11.98;43.40;99047.44;6608153;27;33748;-90
2022/04/08 07:26:21;;;;;;;3.83;1.20;;;;;;;12.19;42.84;99051.25;6613720;26;20024;-90
2022/04/08 08:18:52;;;;;;;4.62;1.00;;;;;;;12.67;38.46;99106.88;6609370;26;20044;-92
2022/04/08 08:21:55;;;;;;;5.03;1.40;;;;;;;12.98;37.93;99108.91;6594767;27;32294;-89
2022/04/08 08:24:58;;;;;;;4.78;1.05;;;;;;;12.76;37.72;99112.41;6613143;26;34622;-89
2022/04/08 08:28:03;;;;;;;5.40;0.95;;;;;;;13.15;38.15;99098.72;6607838;27;34205;-89
2022/04/08 08:31:07;;;;;;;3.80;1.17;;;;;;;13.39;37.85;99114.53;6603460;26;33731;-89
2022/04/08 08:34:11;;;;;;;4.60;1.20;;;;;;;13.43;37.17;99120.44;6587157;27;32537;-89
2022/04/08 08:37:14;;;;;;;3.62;1.10;;;;;;;13.52;36.86;99137.53;6588247;27;32569;-89
2022/04/08 08:40:18;;;;;;;2.00;0.82;;;;;;;13.58;37.08;99147.69;6571308;27;33498;-89
2022/04/08 08:43:21;;;;;;;2.00;1.02;;;;;;;13.72;36.81;99168.69;6586221;27;34805;-88
2022/04/08 08:46:28;;;;;;;6.62;1.10;;;;;;;13.97;34.79;99152.47;6591525;27;33836;-89
2022/04/08 08:57:02;;;;;;;4.60;1.10;;;;;;;14.12;33.01;99172.53;6602440;26;20428;-89
2022/04/08 09:00:10;;;;;;;1.30;1.00;;;;;;;14.69;32.23;99206.03;6599444;26;34392;-90
2022/04/08 09:03:13;;;;;;;2.10;1.08;;;;;;;13.73;32.92;99188.22;6608203;26;34033;-89
2022/04/08 09:06:17;;;;;;;6.80;1.20;;;;;;;13.68;33.94;99188.56;6612411;27;34308;-89
2022/04/08 09:59:20;;;;;;;3.62;1.00;;;;;;;17.05;28.93;99251.00;6580903;27;20053;-89
2022/04/08 10:02:49;;;;;;;4.05;0.95;;;;;;;18.74;25.34;99234.69;6558142;27;34449;-90
2022/04/08 10:24:53;;;;;;;1.37;0.98;;;;;;;23.46;20.27;99231.75;6586060;27;20064;-89
2022/04/08 10:27:59;;;;;;;1.77;0.90;;;;;;;23.50;21.06;99248.47;6594629;27;32341;-86
2022/04/08 10:31:17;;;;;;;2.08;1.17;;;;;;;23.02;21.32;99239.69;6611559;27;34929;-86
2022/04/08 10:34:22;;;;;;;4.37;1.20;;;;;;;20.91;22.17;99256.63;6585798;27;32781;-90
2022/04/08 10:37:27;;;;;;;1.87;0.90;;;;;;;20.19;23.63;99261.69;6588304;26;32657;-87
2022/04/08 10:40:39;;;;;;;3.45;1.48;;;;;;;18.77;25.01;99253.16;6617187;27;34193;-87
2022/04/08 10:43:43;;;;;;;3.87;1.60;;;;;;;18.27;26.27;99240.19;6591923;27;32878;-86
2022/04/08 10:46:51;;;;;;;2.90;1.10;;;;;;;17.30;27.06;99237.94;6593620;27;32504;-86
2022/04/08 10:50:04;;;;;;;6.28;1.00;;;;;;;17.74;26.35;99236.44;6605971;27;33933;-85
2022/04/08 10:53:13;;;;;;;1.85;0.90;;;;;;;17.22;27.91;99244.06;6586516;27;33797;-84
2022/04/08 10:56:16;;;;;;;4.25;1.05;;;;;;;17.73;26.79;99237.44;6586142;27;33821;-84
2022/04/08 10:59:27;;;;;;;9.65;1.10;;;;;;;18.59;28.63;99236.09;6607423;27;33682;-87
2022/04/08 11:02:55;;;;;;;6.93;1.30;;;;;;;18.78;25.62;99228.81;6609370;27;33860;-88
2022/04/08 11:05:58;;;;;;;2.40;0.95;;;;;;;17.93;27.20;99235.47;6612784;27;35423;-87
2022/04/08 11:09:06;;;;;;;2.95;1.00;;;;;;;18.09;26.76;99216.03;6614310;27;34049;-87
2022/04/08 11:12:09;;;;;;;1.73;1.00;;;;;;;17.80;27.76;99219.72;6610884;27;34637;-88
2022/04/08 11:15:14;;;;;;;6.68;1.08;;;;;;;17.99;27.44;99225.94;6611842;27;34057;-87
2022/04/08 11:18:20;;;;;;;2.78;1.45;;;;;;;16.94;28.60;99225.22;6597395;27;32534;-90
2022/04/08 11:21:28;;;;;;;3.42;1.00;;;;;;;17.31;29.11;99233.44;6591133;27;32770;-90
2022/04/08 11:24:35;;;;;;;5.82;0.90;;;;;;;16.83;29.11;99234.28;6608028;27;34537;-88
2022/04/08 11:27:38;;;;;;;1.92;0.90;;;;;;;16.36;29.49;99243.09;6586925;27;34610;-88
2022/04/08 11:30:40;;;;;;;2.83;0.80;;;;;;;16.24;30.09;99237.03;6588139;27;32698;-88
2022/04/08 11:33:43;;;;;;;1.83;0.60;;;;;;;16.03;30.55;99237.16;6615189;27;33786;-88
2022/04/08 11:36:46;;;;;;;1.62;1.00;;;;;;;15.99;32.42;99241.13;6600684;26;32958;-88
2022/04/08 11:39:59;;;;;;;3.60;1.00;;;;;;;16.25;31.47;99221.84;6562579;26;34898;-88
2022/04/08 11:43:11;;;;;;;1.85;1.12;;;;;;;16.32;30.37;99222.09;6552928;27;34435;-90
2022/04/08 11:46:16;;;;;;;6.82;1.10;;;;;;;16.27;30.92;99226.06;6532872;27;33276;-86
2022/04/08 11:49:27;;;;;;;6.72;1.10;;;;;;;15.87;32.04;99227.84;6532726;27;32454;-86
2022/04/08 11:52:30;;;;;;;2.35;1.25;;;;;;;15.79;32.96;99221.50;6552285;27;33794;-86
2022/04/08 11:55:34;;;;;;;4.55;1.27;;;;;;;16.03;32.25;99216.63;6532081;27;33503;-86
2022/04/08 11:58:38;;;;;;;1.20;0.90;;;;;;;16.35;31.66;99217.28;6556241;27;34296;-87
2022/04/08 12:01:41;;;;;;;2.60;1.00;;;;;;;16.20;31.44;99216.91;6557293;27;35878;-88
2022/04/08 12:04:45;;;;;;;2.95;1.10;;;;;;;16.00;32.42;99216.87;6563975;27;34090;-88
2022/04/08 12:07:47;;;;;;;4.05;1.45;;;;;;;16.10;32.42;99208.84;6537064;27;34786;-87
2022/04/08 12:10:57;;;;;;;2.58;0.93;;;;;;;16.05;34.50;99221.84;6540985;27;32857;-87
2022/04/08 12:14:09;;;;;;;3.10;1.00;;;;;;;16.30;33.51;99214.22;6544148;27;35882;-88
2022/04/08 12:17:12;;;;;;;1.48;1.00;;;;;;;16.49;33.52;99207.16;6539438;27;32866;-87
2022/04/08 12:20:17;;;;;;;1.87;1.15;;;;;;;16.68;33.20;99201.75;6560663;27;34149;-89
2022/04/08 12:23:26;;;;;;;4.45;1.30;;;;;;;16.72;33.36;99205.00;6557112;27;34414;-87
2022/04/08 12:26:33;;;;;;;3.25;1.05;;;;;;;17.02;32.94;99197.75;6537077;27;32867;-85
2022/04/08 12:29:39;;;;;;;4.03;1.30;;;;;;;17.55;32.09;99183.78;6560193;27;36132;-85
2022/04/08 12:32:43;;;;;;;3.62;1.52;;;;;;;17.60;34.73;99189.53;6553818;27;34312;-86
2022/04/08 12:35:47;;;;;;;3.65;1.10;;;;;;;18.10;33.53;99173.94;6534075;27;32507;-86
2022/04/08 12:38:50;;;;;;;4.22;1.10;;;;;;;18.49;31.99;99167.34;6558942;27;34549;-85
2022/04/08 12:41:59;;;;;;;3.55;1.20;;;;;;;18.50;31.38;99164.50;6538870;27;33100;-86
2022/04/08 12:45:03;;;;;;;1.50;1.15;;;;;;;18.55;32.04;99156.81;6536358;27;32885;-87
2022/04/08 12:48:07;;;;;;;2.05;1.27;;;;;;;18.00;31.92;99157.91;6538733;27;33129;-86
2022/04/08 12:51:10;;;;;;;2.35;1.35;;;;;;;17.92;32.22;99142.56;6558676;27;34214;-87
2022/04/08 12:54:13;;;;;;;4.60;1.20;;;;;;;17.72;32.57;99132.00;6558260;27;35040;-88
2022/04/08 12:57:18;;;;;;;1.52;1.17;;;;;;;17.66;32.81;99132.63;6554602;27;35447;-88
2022/04/08 13:00:41;;;;;;;2.92;1.50;;;;;;;17.63;33.27;99130.25;6556212;27;33297;-88
2022/04/08 13:07:53;;;;;;;3.92;1.67;;;;;;;17.36;34.26;99138.16;6612063;26;20064;-87
2022/04/08 13:10:56;;;;;;;5.47;1.40;;;;;;;16.68;35.71;99128.62;6612424;26;34518;-88
2022/04/08 13:13:58;;;;;;;2.83;1.33;;;;;;;16.65;36.16;99127.06;6588246;27;32485;-89
2022/04/08 13:17:02;;;;;;;3.42;1.30;;;;;;;16.51;36.62;99114.16;6609058;27;33815;-90
2022/04/08 13:20:06;;;;;;;3.42;1.20;;;;;;;16.76;36.35;99114.50;6614347;27;33648;-90
2022/04/08 13:23:09;;;;;;;4.93;1.50;;;;;;;17.49;37.45;99111.00;6589629;27;34528;-86
2022/04/08 13:26:12;;;;;;;4.57;1.40;;;;;;;17.52;35.50;99107.19;6588032;27;32567;-86
2022/04/08 13:29:15;;;;;;;2.65;1.40;;;;;;;17.55;34.65;99100.69;6587364;27;32673;-86
2022/04/08 13:32:18;;;;;;;4.65;1.42;;;;;;;17.35;36.25;99092.78;6586613;27;32401;-86
2022/04/08 13:35:21;;;;;;;6.68;1.70;;;;;;;17.77;35.53;99086.78;6609360;27;34278;-87
2022/04/08 13:38:25;;;;;;;3.25;1.30;;;;;;;17.55;35.67;99076.53;6608486;27;33609;-86
2022/04/08 13:41:29;;;;;;;3.58;1.42;;;;;;;17.71;34.75;99075.84;6588114;27;32730;-86
2022/04/08 13:44:33;;;;;;;4.25;1.33;;;;;;;17.73;35.18;99061.28;6607171;27;34389;-88
2022/04/08 13:47:36;;;;;;;2.60;1.05;;;;;;;17.86;34.63;99063.53;6608564;26;34083;-88
2022/04/08 13:50:39;;;;;;;2.62;1.50;;;;;;;17.41;35.42;99061.84;6588783;27;32453;-88
2022/04/08 13:53:42;;;;;;;6.03;1.60;;;;;;;17.03;36.19;99075.34;6608207;27;34452;-87
2022/04/08 13:56:45;;;;;;;4.43;1.85;;;;;;;16.76;36.53;99068.97;6608745;27;33792;-87
2022/04/08 13:59:48;;;;;;;1.87;1.42;;;;;;;16.43;37.40;99067.56;6589690;27;32366;-84
2022/04/08 14:02:51;;;;;;;8.32;1.40;;;;;;;16.35;37.47;99054.06;6608765;27;34038;-84
2022/04/08 14:05:54;;;;;;;3.75;1.30;;;;;;;16.59;37.30;99046.53;6607511;27;33892;-85
2022/04/08 14:08:57;;;;;;;2.60;1.87;;;;;;;16.78;39.05;99046.41;6613399;27;34050;-84
2022/04/08 14:12:00;;;;;;;4.10;1.90;;;;;;;17.09;36.82;99046.13;6587468;27;34339;-84
2022/04/08 14:15:04;;;;;;;3.47;1.60;;;;;;;17.18;37.11;99040.84;6605954;27;33960;-85
2022/04/08 14:18:28;;;;;;;5.90;1.62;;;;;;;17.22;36.43;99027.00;6607867;27;34175;-88
2022/04/08 14:21:30;;;;;;;12.05;1.73;;;;;;;17.75;38.85;99020.91;6589251;27;33366;-88
2022/04/08 14:24:33;;;;;;;7.78;1.92;;;;;;;17.88;36.93;99009.75;6607628;27;35571;-89
2022/04/08 14:27:36;;;;;;;4.00;2.05;;;;;;;18.00;37.75;99010.34;6607419;27;34337;-85
2022/04/08 14:30:40;;;;;;;3.00;1.80;;;;;;;17.91;37.14;98999.53;6607023;27;33978;-85
2022/04/08 14:33:43;;;;;;;7.50;1.83;;;;;;;17.69;36.66;98992.88;6595501;27;34973;-85
2022/04/08 14:36:47;;;;;;;6.62;2.83;;;;;;;17.30;36.62;98990.56;6610814;27;35049;-84
2022/04/08 14:39:50;;;;;;;3.47;2.72;;;;;;;17.10;37.16;98980.81;6587081;27;32822;-84
2022/04/08 14:42:55;;;;;;;3.70;2.55;;;;;;;16.77;38.10;98974.25;6607213;27;34071;-85
2022/04/08 14:45:58;;;;;;;3.47;2.40;;;;;;;16.65;38.45;98962.94;6606373;27;34024;-84
2022/04/08 14:49:01;;;;;;;5.10;2.45;;;;;;;16.33;38.96;98970.41;6606241;27;34801;-84
2022/04/08 14:52:04;;;;;;;7.78;3.75;;;;;;;16.08;39.40;98964.75;6607187;27;34367;-84
2022/04/08 14:55:09;;;;;;;3.35;3.00;;;;;;;15.78;40.50;98961.31;6610916;27;34077;-84
2022/04/08 14:58:12;;;;;;;6.97;3.62;;;;;;;15.80;41.21;98950.47;6576422;27;32941;-86
2022/04/08 15:01:15;;;;;;;5.32;4.15;;;;;;;15.74;41.76;98935.88;6584275;27;32831;-87
2022/04/08 15:04:18;;;;;;;5.12;4.32;;;;;;;15.67;42.52;98932.91;6585056;27;34128;-86
2022/04/08 15:07:21;;;;;;;6.95;4.03;;;;;;;15.50;43.65;98927.31;6583655;27;33521;-85
2022/04/08 15:10:26;;;;;;;8.25;4.62;;;;;;;15.41;44.18;98903.28;6586182;27;34595;-85
2022/04/08 15:13:29;;;;;;;8.85;4.60;;;;;;;15.14;45.21;98894.22;6585664;27;32784;-86
2022/04/08 15:16:32;;;;;;;9.88;4.80;;;;;;;15.25;45.40;98878.03;6585400;27;34416;-86
2022/04/08 15:19:38;;;;;;;9.38;5.20;;;;;;;15.27;45.83;98875.19;6584801;27;32558;-86
